Rugby, ND

12:10 AM CDT on July 22, 2017 (GMT -0500)
Rugby Municipal

Weather History for KRUG - December, 2013

Change the Weather History Date:

Saturday, December 7, 2013

  Actual Average Record
Temperature  
Mean Temperature -16 °F -  
Max Temperature -11 °F 22 °F 48 °F (2015)
Min Temperature -22 °F 4 °F -22 °F (2013)
Degree Days  
Heating Degree Days 82    
Moisture  
Dew Point -23 °F    
Average Humidity 74    
Maximum Humidity 84    
Minimum Humidity 64    
Precipitation  
Precipitation 0.00 in - - ()
Sea Level Pressure  
Sea Level Pressure 30.43 in    
Wind  
Wind Speed 12 mph (West)    
Max Wind Speed 17 mph    
Max Gust Speed 17 mph    
Visibility 10 miles    
Events Snow    
Averages and records for this station are not official NWS values.
T = Trace of Precipitation, MM = Missing Value Source: NWS Daily Summary

Daily Weather History Graph

Daily Weather History Graph

Search for Another Location

Airport or City:

Trip Planner

Search our weather history database for the weather conditions in past years. The results will help you decide how hot, cold, wet, or windy it might be!

Date:

Astronomy

Dec. 07, 2013 Rise Set
Actual Time 8:17 AM CST 4:45 PM CST
Civil Twilight 7:41 AM CST 5:21 PM CST
Nautical Twilight 7:01 AM CST 6:01 PM CST
Astronomical Twilight 6:23 AM CST 6:39 PM CST
Moon 11:46 AM CST (12/7) 10:48 PM CST (12/7)
Length of Visible Light 9h 40m
Length of Day
8h 27m
Waxing Crescent, 29% of the Moon is Illuminated
Dec 7
Waxing Crescent
Dec 9
First Quarter
Dec 17
Full
Dec 25
Last Quarter
Jan 1
New

Hourly Weather History & Observations

Time (CST) Temp. Windchill Dew Point Humidity Pressure Visibility Wind Dir Wind Speed Gust Speed Precip Events Conditions
12:15 AM -14.8 °F -35.6 °F -20.2 °F 77% 30.50 in 8.0 mi West 11.5 mph - N/A Snow Light Snow
12:35 AM -14.8 °F -35.6 °F -20.2 °F 77% 30.50 in 8.0 mi West 11.5 mph - N/A   Scattered Clouds
12:55 AM -13.0 °F -32.4 °F -20.2 °F 70% 30.50 in 5.0 mi West 10.4 mph - N/A Snow Light Snow
1:15 AM -13.0 °F -35.2 °F -18.4 °F 77% 30.49 in 7.0 mi WNW 13.8 mph 17.3 mph N/A   Overcast
1:35 AM -13.0 °F -37.5 °F -18.4 °F 77% 30.49 in 5.0 mi WNW 17.3 mph - N/A   Haze
1:55 AM -13.0 °F -36.8 °F -18.4 °F 77% 30.49 in 6.0 mi WNW 16.1 mph - N/A Snow Light Snow
2:15 AM -13.0 °F -36.0 °F -18.4 °F 77% 30.49 in 5.0 mi WNW 15.0 mph - N/A Snow Light Snow
2:35 AM -13.0 °F -36.0 °F -18.4 °F 77% 30.49 in 7.0 mi WNW 15.0 mph - N/A   Overcast
2:55 AM -13.0 °F -36.8 °F -18.4 °F 77% 30.50 in 8.0 mi WNW 16.1 mph - N/A   Overcast
3:15 AM -13.0 °F -36.0 °F -18.4 °F 77% 30.50 in 7.0 mi WNW 15.0 mph - N/A   Overcast
3:35 AM -13.0 °F -36.0 °F -18.4 °F 77% 30.50 in 7.0 mi WNW 15.0 mph - N/A   Overcast
3:55 AM -13.0 °F -33.4 °F -20.2 °F 70% 30.50 in 10.0 mi WNW 11.5 mph - N/A   Overcast
4:15 AM -14.8 °F -38.3 °F -20.2 °F 77% 30.49 in 10.0 mi West 15.0 mph - N/A   Mostly Cloudy
4:35 AM -16.6 °F -39.8 °F -22.0 °F 76% 30.50 in 10.0 mi WNW 13.8 mph - N/A   Mostly Cloudy
4:55 AM -16.6 °F -40.6 °F -22.0 °F 76% 30.49 in 10.0 mi WNW 15.0 mph - N/A   Partly Cloudy
5:15 AM -18.4 °F -39.1 °F -23.8 °F 76% 30.49 in 10.0 mi West 10.4 mph - N/A   Partly Cloudy
5:35 AM -18.4 °F -40.2 °F -23.8 °F 76% 30.49 in 10.0 mi West 11.5 mph - N/A   Scattered Clouds
5:55 AM -18.4 °F -41.2 °F -25.6 °F 70% 30.49 in 10.0 mi West 12.7 mph - N/A   Scattered Clouds
6:15 AM -20.2 °F -42.4 °F -25.6 °F 76% 30.49 in 10.0 mi West 11.5 mph - N/A   Clear
6:35 AM -20.2 °F -42.4 °F -25.6 °F 76% 30.49 in 10.0 mi West 11.5 mph - N/A   Clear
6:55 AM -20.2 °F -42.4 °F -25.6 °F 76% 30.48 in 10.0 mi West 11.5 mph - N/A   Clear
7:15 AM -20.2 °F -42.4 °F -25.6 °F 76% 30.49 in 10.0 mi West 11.5 mph - N/A   Unknown
7:35 AM -20.2 °F -41.3 °F -25.6 °F 76% 30.49 in 10.0 mi West 10.4 mph - N/A   Unknown
7:55 AM -22.0 °F -43.6 °F -27.4 °F 76% 30.48 in 10.0 mi West 10.4 mph - N/A   Clear
8:15 AM -20.2 °F -41.3 °F -27.4 °F 69% 30.48 in 10.0 mi West 10.4 mph - N/A   Clear
8:35 AM -20.2 °F -41.3 °F -27.4 °F 69% 30.48 in 10.0 mi West 10.4 mph - N/A   Clear
8:55 AM -20.2 °F -41.3 °F -27.4 °F 69% 30.49 in 10.0 mi West 10.4 mph - N/A   Clear
9:15 AM -20.2 °F -42.4 °F -25.6 °F 76% 30.49 in 10.0 mi West 11.5 mph - N/A   Clear
9:35 AM -20.2 °F -41.3 °F -25.6 °F 76% 30.49 in 10.0 mi West 10.4 mph - N/A   Clear
9:55 AM -18.4 °F -41.2 °F -25.6 °F 70% 30.49 in 10.0 mi West 12.7 mph - N/A   Clear
10:15 AM -18.4 °F -42.1 °F -25.6 °F 70% 30.50 in 10.0 mi West 13.8 mph - N/A   Clear
10:35 AM -18.4 °F -42.1 °F -25.6 °F 70% 30.50 in 10.0 mi West 13.8 mph - N/A   Clear
10:55 AM -16.6 °F -39.8 °F -23.8 °F 70% 30.50 in 10.0 mi West 13.8 mph - N/A   Clear
11:15 AM -16.6 °F -41.4 °F -23.8 °F 70% 30.49 in 10.0 mi West 16.1 mph - N/A   Clear
11:35 AM -16.6 °F -39.8 °F -22.0 °F 76% 30.49 in 10.0 mi West 13.8 mph - N/A   Clear
11:55 AM -14.8 °F -39.1 °F -22.0 °F 70% 30.48 in 10.0 mi West 16.1 mph - N/A   Clear
12:15 PM -14.8 °F -37.5 °F -22.0 °F 70% 30.47 in 10.0 mi West 13.8 mph - N/A   Clear
12:35 PM -13.0 °F -36.0 °F -22.0 °F 64% 30.47 in 10.0 mi West 15.0 mph - N/A   Clear
12:55 PM -13.0 °F -36.0 °F -22.0 °F 64% 30.46 in 10.0 mi West 15.0 mph - N/A   Clear
1:15 PM -13.0 °F -36.8 °F -22.0 °F 64% 30.46 in 10.0 mi West 16.1 mph - N/A   Clear
1:35 PM -13.0 °F -37.5 °F -20.2 °F 70% 30.45 in 10.0 mi West 17.3 mph - N/A   Clear
1:55 PM -13.0 °F -36.0 °F -20.2 °F 70% 30.44 in 10.0 mi West 15.0 mph - N/A   Clear
2:15 PM -13.0 °F -35.2 °F -20.2 °F 70% 30.42 in 10.0 mi West 13.8 mph - N/A   Clear
2:35 PM - - - N/A% 30.42 in 10.0 mi West 12.7 mph - N/A   Clear
2:55 PM - - - N/A% 30.41 in 10.0 mi West 13.8 mph - N/A   Clear
3:15 PM - - - N/A% 30.40 in 10.0 mi West 11.5 mph - N/A   Clear
3:35 PM - - - N/A% 30.40 in 10.0 mi West 10.4 mph - N/A   Clear
3:55 PM - - - N/A% 30.40 in 10.0 mi West 10.4 mph - N/A   Clear
4:15 PM -11.2 °F -29.0 °F -20.2 °F 64% 30.40 in 10.0 mi West 9.2 mph - N/A   Clear
4:35 PM -13.0 °F -28.6 °F -20.2 °F 70% 30.40 in 10.0 mi West 6.9 mph - N/A   Clear
4:55 PM -14.8 °F -30.8 °F -20.2 °F 77% 30.40 in 10.0 mi WSW 6.9 mph - N/A   Clear
5:15 PM -16.6 °F -34.4 °F -22.0 °F 76% 30.40 in 10.0 mi WSW 8.1 mph - N/A   Clear
5:35 PM -16.6 °F -34.4 °F -22.0 °F 76% 30.39 in 10.0 mi SW 8.1 mph - N/A   Clear
5:55 PM -16.6 °F -34.4 °F -22.0 °F 76% 30.38 in 10.0 mi SW 8.1 mph - N/A   Clear
6:15 PM -16.6 °F -34.4 °F -22.0 °F 76% 30.38 in 10.0 mi SW 8.1 mph - N/A   Clear
6:35 PM -16.6 °F -35.7 °F -22.0 °F 76% 30.37 in 10.0 mi WSW 9.2 mph - N/A   Clear
6:55 PM -18.4 °F -37.9 °F -22.0 °F 84% 30.37 in 10.0 mi WSW 9.2 mph - N/A   Clear
7:15 PM -18.4 °F -37.9 °F -22.0 °F 84% 30.36 in 10.0 mi WSW 9.2 mph - N/A   Clear
7:35 PM -18.4 °F -37.9 °F -22.0 °F 84% 30.36 in 10.0 mi SW 9.2 mph - N/A   Clear
7:55 PM -16.6 °F -35.7 °F -22.0 °F 76% 30.35 in 10.0 mi SW 9.2 mph - N/A   Clear
8:15 PM -16.6 °F -34.4 °F -22.0 °F 76% 30.36 in 10.0 mi SW 8.1 mph - N/A   Clear
8:35 PM -16.6 °F -36.8 °F -22.0 °F 76% 30.35 in 10.0 mi SW 10.4 mph - N/A   Clear
8:55 PM -16.6 °F -35.7 °F -22.0 °F 76% 30.34 in 10.0 mi SSW 9.2 mph - N/A   Clear
9:15 PM -16.6 °F -34.4 °F -22.0 °F 76% 30.33 in 10.0 mi SSW 8.1 mph - N/A   Clear
9:35 PM -18.4 °F -37.9 °F -23.8 °F 76% 30.32 in 10.0 mi SW 9.2 mph - N/A   Clear
9:55 PM -18.4 °F -37.9 °F -23.8 °F 76% 30.33 in 10.0 mi SSW 9.2 mph - N/A   Clear
10:15 PM -18.4 °F -37.9 °F -23.8 °F 76% 30.32 in 10.0 mi SSW 9.2 mph - N/A   Clear
10:35 PM -18.4 °F -36.6 °F -23.8 °F 76% 30.31 in 10.0 mi SW 8.1 mph - N/A   Clear
10:55 PM -20.2 °F -37.3 °F -25.6 °F 76% 30.29 in 10.0 mi WSW 6.9 mph - N/A   Clear
11:15 PM -20.2 °F -37.3 °F -25.6 °F 76% 30.29 in 10.0 mi SW 6.9 mph - N/A   Clear
11:35 PM -20.2 °F -40.1 °F -25.6 °F 76% 30.29 in 10.0 mi SSW 9.2 mph - N/A   Clear
11:55 PM -20.2 °F -41.3 °F -25.6 °F 76% 30.29 in 10.0 mi SSW 10.4 mph - N/A   Clear